Latest Weather Observations for Camooweal

IDD60801

Issued at 12:31 pm CST Monday 2 March 2015 (issued every 30 minutes, with the page automatically refreshed every 10 minutes)

About weather observations | Map of weather stations | Latest weather observations for NT | Other Formats
Station Details ID: 037010 Name: CAMOOWEAL TOWNSHIP Lat: -19.92 Lon: 138.12 Height: 231.2 m
Data from the previous 72 hours. | See also: Recent months at Camooweal
Date/Time
CST
Temp
°C
App
Temp
°C
Dew
Point
Rel
Hum
%
Delta-T
°C
Wind Press
QNH
hPa
Press
MSL
hPa
Rain
since 9 am
mm
Dir
 
Spd
km/h
Gust
km/h
Spd
kts
Gust
kts
02/12:30pm 36.1 39.1 22.6 45 9.4 WNW 11 17 6 9 1007.4 1005.8 0.0
02/12:00pm 35.0 38.2 23.7 52 8.0 NNW 13 20 7 11 1007.8 1006.2 0.0
02/11:30am 34.9 37.9 22.6 49 8.6 NW 11 19 6 10 1008.3 1006.7 0.0
02/11:00am 34.3 37.3 23.3 52 7.7 NNW 13 20 7 11 1008.7 1007.1 0.0
02/10:30am 34.1 38.1 24.4 57 6.9 NNW 11 15 6 8 1009.0 1007.4 0.0
02/10:00am 33.1 36.9 24.0 59 6.4 NW 11 17 6 9 1009.3 1007.7 0.0
02/09:30am 32.2 35.2 23.4 59 6.1 NNW 13 19 7 10 1009.4 1007.8 0.0
02/09:00am 31.3 34.6 23.9 64 5.2 NW 13 19 7 10 1009.2 1007.6 0.0
02/08:30am 30.6 34.6 23.8 67 4.8 NW 9 15 5 8 1008.7 1007.1 0.2
02/08:00am 29.9 33.8 23.6 69 4.4 NNW 9 13 5 7 1008.8 1007.2 0.2
02/07:30am 28.8 33.7 23.7 74 3.5 NNW 4 9 2 5 1008.5 1006.9 0.2
02/07:00am 27.6 33.4 24.0 81 2.5 CALM 0 0 0 0 1008.4 1006.8 0.2
02/06:30am 26.4 32.4 24.2 88 1.5 CALM 0 0 0 0 1008.1 1006.5 0.2
02/06:00am 26.9 32.9 24.2 85 1.9 CALM 0 0 0 0 1008.0 1006.4 0.2
02/05:30am 26.7 31.5 24.2 86 1.7 WSW 6 7 3 4 1007.9 1006.3 0.2
02/05:00am 26.8 31.2 24.5 87 1.6 SW 9 11 5 6 1007.7 1006.1 0.2
02/04:30am 27.4 32.7 24.3 83 2.2 SW 4 7 2 4 1007.5 1005.9 0.2
02/04:00am 27.7 33.2 24.1 81 2.5 WNW 2 7 1 4 1007.1 1005.5 0.2
02/03:30am 27.9 32.7 23.5 77 3.0 N 4 9 2 5 1006.8 1005.2 0.2
02/03:00am 28.3 31.7 23.4 75 3.4 N 11 13 6 7 1006.6 1005.0 0.2
02/02:30am 28.6 31.6 23.3 73 3.7 N 13 17 7 9 1006.3 1004.7 0.2
02/02:00am 29.1 32.0 23.1 70 4.1 N 13 20 7 11 1006.5 1004.9 0.2
02/01:30am 29.6 32.6 23.3 69 4.4 N 13 20 7 11 1006.3 1004.7 0.2
02/01:00am 29.5 33.3 24.1 72 3.8 N 11 17 6 9 1006.6 1005.0 0.2
02/12:30am 29.6 34.2 24.7 75 3.5 NNE 9 15 5 8 1007.0 1005.4 0.2
02/12:00am 29.7 34.9 24.8 75 3.5 N 6 7 3 4 1007.3 1005.7 0.2
 
Date/Time
CST
Temp
°C
App
Temp
°C
Dew
Point
Rel
Hum
%
Delta-T
°C
Wind Press
QNH
hPa
Press
MSL
hPa
Rain
since 9 am
mm
Dir
 
Spd
km/h
Gust
km/h
Spd
kts
Gust
kts
01/11:30pm 29.6 34.2 24.7 75 3.5 N 9 11 5 6 1007.4 1005.8 0.2
01/11:00pm 29.5 34.4 24.6 75 3.4 N 7 11 4 6 1007.4 1005.8 0.2
01/10:30pm 29.3 33.9 24.8 77 3.2 N 9 11 5 6 1007.5 1005.9 0.2
01/10:00pm 29.4 34.9 24.7 76 3.3 N 4 9 2 5 1007.4 1005.8 0.2
01/09:30pm 29.5 34.9 23.9 72 3.9 NNW 2 6 1 3 1007.6 1006.0 0.2
01/09:00pm 29.6 35.3 23.8 71 4.0 CALM 0 0 0 0 1007.4 1005.8 0.2
01/08:30pm 29.6 35.4 24.0 72 3.9 CALM 0 6 0 3 1007.5 1005.9 0.2
01/08:00pm 29.4 33.9 23.6 71 4.0 SSE 6 7 3 4 1007.0 1005.4 0.2
01/07:30pm 29.7 34.1 23.4 69 4.4 SE 6 7 3 4 1006.9 1005.3 0.2
01/07:00pm 29.8 33.3 23.5 69 4.4 S 11 15 6 8 1006.5 1004.9 0.2
01/06:30pm 30.8 33.3 23.2 64 5.3 SSE 15 24 8 13 1006.3 1004.7 0.2
01/06:00pm 32.9 37.3 23.8 58 6.4 SW 7 9 4 5 1006.0 1004.5 0.2
01/05:30pm 33.7 38.7 22.5 52 7.8 CALM 0 0 0 0 1005.5 1003.9 0.2
01/05:00pm 34.0 38.3 21.1 47 8.8 CALM 0 0 0 0 1005.7 1004.2 0.2
01/04:30pm 34.2 37.4 21.6 47 8.6 NNW 7 11 4 6 1005.2 1003.6 0.2
01/04:00pm 34.4 37.7 21.8 48 8.7 NNW 7 15 4 8 1005.6 1004.0 0.2
01/03:30pm 34.4 36.0 21.4 46 8.9 N 15 22 8 12 1005.3 1003.7 0.2
01/03:00pm 34.0 36.7 22.1 50 8.2 N 11 15 6 8 1005.7 1004.2 0.2
01/02:30pm 34.8 37.9 22.8 49 8.4 NNW 11 17 6 9 1005.7 1004.2 0.2
01/02:00pm 34.0 36.3 22.1 50 8.2 N 13 20 7 11 1006.3 1004.7 0.2
01/01:30pm 33.1 35.6 22.5 53 7.3 NNW 13 19 7 10 1006.8 1005.2 0.2
01/01:00pm 33.3 35.0 22.4 52 7.5 N 17 22 9 12 1007.5 1005.9 0.2
01/12:30pm 33.6 35.6 23.0 54 7.4 N 17 28 9 15 1007.8 1006.2 0.2
01/12:00pm 31.4 32.7 22.4 59 6.2 N 19 26 10 14 1008.2 1006.6 0.2
01/11:30am 32.0 33.4 23.5 60 5.9 N 22 32 12 17 1008.7 1007.1 0.2
01/11:00am 32.4 35.3 23.9 61 6.0 NNW 15 24 8 13 1008.9 1007.3 0.2
01/10:30am 31.1 35.0 24.2 66 4.9 NNW 11 17 6 9 1009.0 1007.4 0.2
01/10:00am 29.7 33.8 24.6 74 3.6 NNW 11 19 6 10 1008.8 1007.2 0.2
01/09:30am 28.0 30.5 23.8 78 2.9 N 17 22 9 12 1008.7 1007.1 0.0
01/09:00am 27.6 30.1 23.8 80 2.6 NNW 17 24 9 13 1008.6 1006.9 0.0
01/08:30am 27.0 29.7 23.5 81 2.4 N 15 28 8 15 1008.6 1006.9 9.2
01/08:00am 27.2 29.1 23.4 80 2.6 N 19 26 10 14 1008.4 1006.7 9.2
01/07:30am 27.1 28.6 23.1 79 2.8 N 20 28 11 15 1008.3 1006.6 9.2
01/07:00am 27.0 29.4 23.0 79 2.7 N 15 22 8 12 1008.1 1006.4 9.2
01/06:30am 27.6 29.6 23.6 79 2.8 N 19 24 10 13 1007.3 1005.5 9.2
01/06:00am 27.4 30.0 24.0 82 2.4 N 17 24 9 13 1006.6 1004.8 9.2
01/05:30am 27.6 32.0 24.4 83 2.2 N 9 15 5 8 1005.9 1004.2 9.2
01/05:00am 27.6 32.4 24.4 83 2.2 N 7 11 4 6 1005.7 1004.0 9.2
01/04:30am 27.6 32.2 24.2 82 2.4 N 7 11 4 6 1005.5 1003.8 9.2
01/04:00am 27.8 31.8 23.8 79 2.8 N 9 11 5 6 1005.4 1003.7 9.2
01/03:30am 28.2 31.6 24.0 78 2.9 N 13 17 7 9 1005.3 1003.6 9.2
01/03:00am 28.2 31.9 23.3 75 3.4 N 9 13 5 7 1005.2 1003.5 9.2
01/02:30am 28.7 32.7 23.8 75 3.4 N 9 13 5 7 1005.1 1003.4 9.2
01/02:00am 29.4 32.4 23.3 69 4.2 N 13 17 7 9 1004.8 1003.1 9.2
01/01:30am 29.7 32.8 23.6 69 4.3 N 13 20 7 11 1005.1 1003.4 9.2
01/01:00am 30.1 34.6 25.2 75 3.5 NE 11 15 6 8 1005.5 1003.8 9.2
01/12:30am 30.1 35.2 24.9 73 3.7 NNW 7 11 4 6 1005.2 1003.5 9.2
01/12:00am 30.0 35.9 25.3 76 3.3 NNE 4 7 2 4 1005.1 1003.4 9.2
 
Date/Time
CST
Temp
°C
App
Temp
°C
Dew
Point
Rel
Hum
%
Delta-T
°C
Wind Press
QNH
hPa
Press
MSL
hPa
Rain
since 9 am
mm
Dir
 
Spd
km/h
Gust
km/h
Spd
kts
Gust
kts
28/11:30pm 30.1 35.2 24.9 73 3.7 N 7 9 4 5 1005.2 1003.5 9.2
28/11:00pm 30.3 35.1 24.4 70 4.1 NNE 7 9 4 5 1005.3 1003.6 9.2
28/10:30pm 30.3 34.9 24.2 70 4.3 NNE 7 11 4 6 1005.2 1003.5 9.2
28/10:00pm 30.4 34.0 23.8 68 4.6 NE 11 15 6 8 1005.1 1003.4 9.2
28/09:30pm 30.4 34.4 23.8 68 4.6 ENE 9 11 5 6 1005.3 1003.6 9.2
28/09:00pm 30.5 33.3 23.7 67 4.7 ENE 15 20 8 11 1005.4 1003.7 9.2
28/08:30pm 30.7 35.6 24.6 70 4.3 NNE 7 15 4 8 1005.3 1003.6 9.2
28/08:00pm 30.7 35.9 25.1 72 4.0 NW 7 9 4 5 1005.0 1003.3 9.2
28/07:30pm 29.4 33.8 24.5 75 3.5 NNW 9 11 5 6 1004.6 1002.9 9.2
28/07:00pm 28.9 32.3 23.3 72 3.9 W 11 15 6 8 1004.7 1003.0 9.2
28/06:30pm 28.3 30.3 23.0 73 3.7 W 17 20 9 11 1004.9 1003.2 9.2
28/06:00pm 26.3 26.0 24.2 88 1.5 W 33 46 18 25 1004.9 1003.2 9.2
28/05:33pm 29.3 29.5 23.5 71 4.0 W 28 48 15 26 1003.8 1002.0 0.4
28/05:30pm 30.1 31.4 23.3 67 4.7 W 22 37 12 20 1003.9 1002.1 0.2
28/05:28pm 32.0 33.7 23.0 59 6.2 WNW 19 37 10 20 1003.8 1002.0 0.2
28/05:00pm 37.3 39.4 20.1 36 11.6 N 9 17 5 9 1003.2 1001.4 0.2
28/04:30pm 37.6 40.2 20.4 36 11.7 WSW 7 11 4 6 1003.3 1001.5 0.2
28/04:00pm 38.4 41.2 21.5 37 11.7 NNW 9 20 5 11 1003.7 1001.9 0.2
28/03:30pm 38.0 39.0 20.3 35 12.1 WNW 15 24 8 13 1003.8 1002.0 0.2
28/03:00pm 37.9 40.3 21.5 38 11.3 WNW 11 19 6 10 1004.2 1002.5 0.2
28/02:30pm 36.9 38.7 21.1 40 10.8 NW 13 22 7 12 1004.5 1002.8 0.2
28/02:00pm 37.3 39.2 21.4 39 10.9 WNW 13 24 7 13 1005.1 1003.4 0.2
28/01:30pm 36.9 38.5 21.5 41 10.6 WNW 15 26 8 14 1005.5 1003.8 0.2
28/01:00pm 36.2 38.1 22.0 43 9.8 NW 15 26 8 14 1006.0 1004.3 0.2
28/12:30pm 35.1 36.1 21.0 43 9.6 NW 17 28 9 15 1006.7 1004.9 0.2
28/12:00pm 35.8 37.9 22.4 46 9.3 WNW 15 28 8 15 1007.1 1005.3 0.2
28/11:30am 34.6 35.9 22.3 48 8.5 NW 19 32 10 17 1007.2 1005.4 0.2
28/11:00am 33.6 34.9 22.4 52 7.7 NW 19 32 10 17 1007.6 1005.8 0.2
28/10:30am 33.1 34.9 22.5 53 7.3 NW 17 26 9 14 1007.9 1006.2 0.2
28/10:00am 32.1 33.5 21.9 54 7.0 NW 17 24 9 13 1008.0 1006.3 0.2
28/09:30am 31.1 32.8 21.6 57 6.5 NW 15 24 8 13 1008.4 1006.7 0.2
28/09:00am 30.5 31.9 21.8 59 5.9 NW 17 28 9 15 1008.6 1006.9 0.0
28/08:30am 29.9 31.0 21.3 60 5.8 NW 17 32 9 17 1008.3 1006.6 0.0
28/08:00am 29.2 30.5 21.7 64 5.1 NNW 17 24 9 13 1008.0 1006.3 0.0
28/07:30am 28.3 30.8 22.5 71 4.0 NNW 13 24 7 13 1007.4 1005.6 0.0
28/07:00am 27.2 31.0 23.4 80 2.6 N 9 13 5 7 1007.0 1005.2 0.0
28/06:30am 26.5 30.6 23.0 81 2.4 NNW 6 9 3 5 1006.5 1004.7 0.0
28/06:00am 26.7 30.4 22.5 78 2.9 NNW 7 9 4 5 1006.2 1004.4 0.0
28/05:30am 27.3 30.7 22.7 76 3.1 N 9 11 5 6 1006.2 1004.4 0.0
28/05:00am 27.7 30.9 22.4 73 3.6 N 9 13 5 7 1005.7 1004.0 0.0
28/04:30am 28.2 30.8 22.7 72 3.8 N 13 17 7 9 1005.4 1003.7 0.0
28/04:00am 28.0 31.0 22.7 73 3.6 NNW 11 17 6 9 1005.4 1003.7 0.0
28/03:30am 28.2 30.9 22.9 73 3.6 N 13 19 7 10 1005.4 1003.7 0.0
28/03:00am 28.2 30.8 22.7 72 3.8 N 13 19 7 10 1005.4 1003.7 0.0
28/02:30am 28.6 30.5 22.8 71 4.0 N 17 24 9 13 1005.6 1003.9 0.0
28/02:00am 29.0 31.5 23.2 71 4.0 N 15 20 8 11 1005.7 1004.0 0.0
28/01:30am 29.1 31.8 23.5 72 3.9 N 15 20 8 11 1005.8 1004.1 0.0
28/01:00am 28.9 32.7 24.0 75 3.4 NNE 11 19 6 10 1006.3 1004.5 0.0
28/12:30am 29.3 32.3 24.0 73 3.7 NE 15 24 8 13 1006.4 1004.6 0.0
28/12:00am 28.8 33.3 23.9 75 3.4 NW 7 11 4 6 1006.5 1004.7 0.0
 
Date/Time
CST
Temp
°C
App
Temp
°C
Dew
Point
Rel
Hum
%
Delta-T
°C
Wind Press
QNH
hPa
Press
MSL
hPa
Rain
since 9 am
mm
Dir
 
Spd
km/h
Gust
km/h
Spd
kts
Gust
kts
27/11:30pm 28.8 32.9 23.2 71 3.9 N 7 9 4 5 1006.8 1005.0 0.0
27/11:00pm 28.1 31.3 23.7 77 3.1 ENE 13 20 7 11 1007.4 1005.6 0.0
27/10:30pm 28.2 32.7 23.6 76 3.2 NW 6 9 3 5 1006.9 1005.1 0.0
27/10:00pm 28.5 31.8 23.2 73 3.7 WSW 11 13 6 7 1006.9 1005.1 0.0
27/09:30pm 29.5 34.6 25.0 77 3.2 WSW 7 9 4 5 1007.0 1005.2 0.0
27/09:00pm 30.6 34.5 21.9 59 5.9 W 4 7 2 4 1006.9 1005.1 0.0
27/08:30pm 30.7 33.1 21.5 58 6.3 SSW 11 20 6 11 1006.9 1005.1 0.0
27/08:00pm 32.1 34.6 21.0 52 7.5 NNW 9 15 5 8 1005.3 1003.6 0.0
27/07:30pm 32.4 34.1 21.0 51 7.7 N 13 17 7 9 1005.0 1003.3 0.0
27/07:00pm 32.8 35.4 22.0 53 7.4 N 11 15 6 8 1005.4 1003.7 0.0
27/06:30pm 33.0 34.6 21.5 50 7.9 N 15 20 8 11 1005.1 1003.4 0.0
27/06:00pm 33.3 33.4 20.4 46 8.7 NNW 20 30 11 16 1003.7 1001.9 0.0
27/05:30pm 33.2 34.0 21.4 50 8.1 N 19 24 10 13 1003.8 1002.0 0.0
27/05:00pm 34.5 35.6 21.9 48 8.7 NNW 19 28 10 15 1004.0 1002.3 0.0
27/04:30pm 34.0 33.4 20.4 45 9.2 N 24 39 13 21 1004.0 1002.3 0.0
27/04:00pm 35.8 37.1 21.6 43 9.8 N 17 20 9 11 1004.1 1002.4 0.0
27/03:30pm 34.9 37.1 21.9 46 9.0 N 13 17 7 9 1004.0 1002.3 0.0
27/03:00pm 35.1 35.9 21.4 45 9.4 N 19 26 10 14 1004.7 1003.0 0.0
27/02:30pm 33.4 33.8 23.1 54 7.2 N 26 39 14 21 1005.1 1003.4 0.0
27/02:00pm 32.1 31.6 20.7 51 7.7 N 24 41 13 22 1005.7 1004.0 0.0
27/01:30pm 35.2 37.6 21.5 45 9.4 W 11 20 6 11 1005.2 1003.5 0.0
27/01:00pm 35.3 38.1 23.0 49 8.6 WNW 13 24 7 13 1005.8 1004.1 0.0
27/12:30pm 35.4 37.7 22.7 47 8.9 NW 15 24 8 13 1006.5 1004.7 0.0

Other Formats:

Comma delimited format used in spreadsheet applications
http://www.bom.gov.au/fwo/IDD60801/IDD60801.94255.axf

JavaScript Object Notation format (JSON) in row-major order
http://www.bom.gov.au/fwo/IDD60801/IDD60801.94255.json